To NAV CANADA Home Page Login to a new session Search on AWWS site Disclaimer Vers la page française équivalente Tips FAQ What's new on the site To the Forecasts and Observations / NOTAM section To "File a Flight Plan" website Publications and other links Update of the User's profile FIC Telephone Numbers My Weather Data Folder Route Weather Data Regional Weather Data Local Weather Data To the Forecasts and Observations / NOTAM section
Request Generated 12/04/2022 at 06:13:26 UTC . Weather information available at that time is displayed.

METAR/TAF

TORONTO/OSHAWA EXECUTIVE AIRPORT/ON    (show WxCam)

METAR CYOO 040600Z AUTO 28008KT 9SM OVC044 M00/M07 A3021 RMK SLP237=
SPECI CYOO 040547Z AUTO 28007G15KT 9SM OVC044 M00/M07 A3021 RMK SLP238=
SPECI CYOO 040537Z AUTO 28008G15KT 9SM -SN OVC046 M00/M07 A3021 RMK SLP238=
METAR CYOO 040500Z AUTO 29010G18KT 9SM OVC050 M00/M08 A3021 RMK SLP237=
METAR CYOO 040400Z AUTO 29012G20KT 230V300 9SM OVC050 00/M08 A3020 RMK SLP235=

TAF CYOO 040140Z 0402/0414 27012G22KT P6SM BKN040 TEMPO 0402/0408
P6SM -SHSN
FM040800 27008KT P6SM BKN030 TEMPO 0408/0414 BKN020
BECMG 0412/0414 25010KT
RMK FCST BASED ON AUTO OBS. NXT FCST BY 040800Z
Your time UTC time
Weather data provided by Environment Canada and NAV CANADA